North Platte, NE (69101)

6:28 AM CST on December 04, 2016 (GMT -0600)
W0AVM | | Change Station

Elev 2805 ft 41.14 °N, 100.74 °W | Updated 5 seconds ago

Partly Cloudy
Partly Cloudy
25.2 °F
Feels Like 20 °F
N
3.8
Wind Variable Wind from West
Gusts 5.4 mph

Today
High -- | Low -- °F
--% Chance of Precip.
Yesterday
High -- | Low -- °F
Precip. -- in
Pressure 30.06 in
Visibility 10.0 miles
Clouds Few 11000 ft
Windchill 20 °F
Dew Point 16 °F
Humidity 67%
Rainfall 0.00 in
Snow Depth Not available.
7:52 AM 5:14 PM
Waxing Crescent, 22% visible
METAR KLBF 041153Z AUTO 29007KT 10SM FEW110 M07/M09 A2998 RMK AO2 SLP180 I6000 T10721094 11022 21083 56003
Pressure 30.06 in
Visibility 10.0 miles
Clouds Few 11000 ft
Windchill 20 °F
Dew Point 16 °F
Humidity 67%
Rainfall 0.00 in
Snow Depth Not available.
7:52 AM 5:14 PM
Waxing Crescent, 22% visible
METAR KLBF 041153Z AUTO 29007KT 10SM FEW110 M07/M09 A2998 RMK AO2 SLP180 I6000 T10721094 11022 21083 56003

10-Day Weather Forecast

Almanac

Astronomy

Dec. 04, 2016 Rise Set
Actual Time
Civil Twilight
Nautical Twilight
Astronomical Twilight
Moon
Length of Visible Light
Length of Day
Tomorrow will be .
, % of the Moon is Illuminated

Today's Extremes

State Highs State Lows

Community

WunderPhotos

Upload Photos

1,955,593 photos uploaded!

WunderBlog® & News

Nearby

Air Quality

  Air Quality AQ Index Pollutant
Not available.

Snow Depth

Station Depth Elevation

Earthquake Activity

City Distance Mag. Time & Date
Minimum magnitude displayed is 2.5.

Coastal Water Temperatures

Place Temperature

Stations

Nearby Weather Stations

Station Location Temp. Windchill Dew Point Humidity Wind Precip. Elev Updated Type
                   

Watches & Warnings

There are currently no watches in effect.